Agios Nikolas — SVAV5 — position and weather

sailwx.info

Track history (hours):
 
Tides and Currents Weather Stations Pressure Air Temp Water Temp Dewpoint Dewpoint Depression Visibility Wind Speed Wind Dir Waves Ship Positions

Agios Nikolas

Last reported at 2018-Jun-19 19:02 UTC. Time now 2018-Jun-19 20:11 UTC.
Position N 45°10' E 036°32'.

Length 225 m; draft 6.9 m.

Type: Cargo ship. MMSI: 240963000.

Date/timePositionNaut miles runAvg speedWind from/ knotsBaromVisibWave heightAir tempDewpointWater temp
2018-Jun-19 19:02N 45°10' E 036°32'0 7.1
2018-Jun-19 19:00N 45°10' E 036°33'1 1.3
2018-Jun-19 18:29N 45°10' E 036°34'0 0.0
2018-Jun-19 17:38N 45°10' E 036°34'0 0.0
2018-Jun-19 17:29N 45°10' E 036°34'0 0.0
2018-Jun-19 16:56N 45°10' E 036°34'0 0.0
2018-Jun-19 15:41N 45°10' E 036°34'0 0.0
2018-Jun-19 15:29N 45°10' E 036°34'0 0.0
2018-Jun-19 14:59N 45°10' E 036°34'0 0.0
2018-Jun-19 14:26N 45°10' E 036°34'0 0.0
2018-Jun-19 13:59N 45°10' E 036°34'0 0.0
2018-Jun-19 13:29N 45°10' E 036°34'0 0.0
2018-Jun-19 12:59N 45°10' E 036°34'0 0.0
2018-Jun-19 12:26N 45°10' E 036°34'0 0.0
2018-Jun-19 11:14N 45°10' E 036°34'0 0.0
2018-Jun-19 10:59N 45°10' E 036°34'0 0.0
2018-Jun-19 10:29N 45°10' E 036°34'0 0.0
2018-Jun-19 09:59N 45°10' E 036°34'0 0.0
2018-Jun-19 09:29N 45°10' E 036°34'0 0.0
2018-Jun-19 08:53N 45°10' E 036°34'0 0.1
2018-Jun-19 08:29N 45°10' E 036°34'0 0.0
2018-Jun-19 07:56N 45°10' E 036°34'0 0.0
2018-Jun-19 07:29N 45°10' E 036°34'0 0.0
2018-Jun-19 06:56N 45°10' E 036°34'0 0.0
2018-Jun-19 06:29N 45°10' E 036°34'0 0.1
2018-Jun-19 05:59N 45°10' E 036°33'0 0.1
2018-Jun-19 05:29N 45°10' E 036°33'0 0.0
2018-Jun-19 04:59N 45°10' E 036°33'0 0.0
2018-Jun-19 04:29N 45°10' E 036°33'0 0.0
2018-Jun-19 03:59N 45°10' E 036°33'0 0.0
2018-Jun-19 00:23N 45°10' E 036°34'0 0.0
2018-Jun-18 16:08N 45°10' E 036°34'0 0.0
2018-Jun-18 15:44N 45°10' E 036°34'0 0.1
2018-Jun-18 15:29N 45°10' E 036°34'0 0.0
2018-Jun-18 14:56N 45°10' E 036°34'0 0.1
2018-Jun-18 14:29N 45°10' E 036°34'0 0.1
2018-Jun-18 13:59N 45°10' E 036°34'0 0.0
2018-Jun-18 13:29N 45°10' E 036°34'0 0.0
2018-Jun-18 12:59N 45°10' E 036°34'0 0.0
2018-Jun-18 12:29N 45°10' E 036°34'0 0.0
2018-Jun-18 11:59N 45°10' E 036°34'0 0.0
2018-Jun-18 11:23N 45°10' E 036°34'0 0.0
2018-Jun-18 10:59N 45°10' E 036°34'0 0.0
2018-Jun-18 10:29N 45°10' E 036°34'0 0.0
2018-Jun-18 09:59N 45°10' E 036°34'0 0.0
2018-Jun-18 09:29N 45°10' E 036°33'0 0.0
2018-Jun-18 08:59N 45°10' E 036°33'0 0.0
2018-Jun-18 08:29N 45°10' E 036°33'0 0.0
2018-Jun-18 07:56N 45°10' E 036°33'0 0.0
2018-Jun-18 07:26N 45°10' E 036°33'0 0.0
2018-Jun-18 02:59N 45°10' E 036°33'0 0.0
2018-Jun-18 02:26N 45°10' E 036°33'0 0.0
2018-Jun-18 01:59N 45°10' E 036°33'0 0.0
2018-Jun-18 01:11N 45°10' E 036°33'0 0.0
2018-Jun-17 23:17N 45°10' E 036°33'0 0.0
2018-Jun-17 20:07N 45°10' E 036°34'1 2.7
2018-Jun-17 19:50N 45°10' E 036°32'2 4.0
2018-Jun-17 19:24N 45°09' E 036°31'32811.7
2018-Jun-16 15:23N 41°47' E 030°35'512.7
2018-Jun-16 15:01N 41°45' E 030°29'612.6
2018-Jun-16 14:30N 41°42' E 030°22'612.8
2018-Jun-16 14:00N 41°39' E 030°14'612.9
2018-Jun-16 13:30N 41°36' E 030°06'612.8
2018-Jun-16 13:00N 41°33' E 029°59'613.0
2018-Jun-16 12:31N 41°30' E 029°51'713.1
2018-Jun-16 12:00N 41°27' E 029°43'612.9
2018-Jun-16 11:30N 41°25' E 029°36'612.7
2018-Jun-16 11:00N 41°22' E 029°28'812.7
2018-Jun-16 10:23N 41°18' E 029°19'912.6
2018-Jun-16 09:39N 41°13' E 029°08'169 7.6
2018-Jun-15 11:31N 39°52' E 025°54'0 8.8
2018-Jun-15 11:29N 39°51' E 025°54'4 7.8
2018-Jun-15 10:55N 39°47' E 025°56'2 0.3
2018-Jun-15 03:31N 39°46' E 025°59'7 1.4
2018-Jun-14 22:34N 39°41' E 025°52'11112.2
2018-Jun-14 13:29N 37°51' E 025°40'2113.5
2018-Jun-14 11:56N 37°32' E 025°49'613.6
2018-Jun-14 11:30N 37°27' E 025°53'  
Track history (hours):
 
Tides and Currents Weather Stations Pressure Air Temp Water Temp Dewpoint Dewpoint Depression Visibility Wind Speed Wind Dir Waves Ship Positions

Agios Nikolas

Last reported at 2018-Jun-19 19:02 UTC. Time now 2018-Jun-19 20:11 UTC.
Position N 45°10' E 036°32'.

Length 225 m; draft 6.9 m.

Type: Cargo ship. MMSI: 240963000.

Date/timePositionNaut miles runAvg speedWind from/ knotsBaromVisibWave heightAir tempDewpointWater temp
2018-Jun-19 19:02N 45°10' E 036°32'0 7.1
2018-Jun-19 19:00N 45°10' E 036°33'1 1.3
2018-Jun-19 18:29N 45°10' E 036°34'0 0.0
2018-Jun-19 17:38N 45°10' E 036°34'0 0.0
2018-Jun-19 17:29N 45°10' E 036°34'0 0.0
2018-Jun-19 16:56N 45°10' E 036°34'0 0.0
2018-Jun-19 15:41N 45°10' E 036°34'0 0.0
2018-Jun-19 15:29N 45°10' E 036°34'0 0.0
2018-Jun-19 14:59N 45°10' E 036°34'0 0.0
2018-Jun-19 14:26N 45°10' E 036°34'0 0.0
2018-Jun-19 13:59N 45°10' E 036°34'0 0.0
2018-Jun-19 13:29N 45°10' E 036°34'0 0.0
2018-Jun-19 12:59N 45°10' E 036°34'0 0.0
2018-Jun-19 12:26N 45°10' E 036°34'0 0.0
2018-Jun-19 11:14N 45°10' E 036°34'0 0.0
2018-Jun-19 10:59N 45°10' E 036°34'0 0.0
2018-Jun-19 10:29N 45°10' E 036°34'0 0.0
2018-Jun-19 09:59N 45°10' E 036°34'0 0.0
2018-Jun-19 09:29N 45°10' E 036°34'0 0.0
2018-Jun-19 08:53N 45°10' E 036°34'0 0.1
2018-Jun-19 08:29N 45°10' E 036°34'0 0.0
2018-Jun-19 07:56N 45°10' E 036°34'0 0.0
2018-Jun-19 07:29N 45°10' E 036°34'0 0.0
2018-Jun-19 06:56N 45°10' E 036°34'0 0.0
2018-Jun-19 06:29N 45°10' E 036°34'0 0.1
2018-Jun-19 05:59N 45°10' E 036°33'0 0.1
2018-Jun-19 05:29N 45°10' E 036°33'0 0.0
2018-Jun-19 04:59N 45°10' E 036°33'0 0.0
2018-Jun-19 04:29N 45°10' E 036°33'0 0.0
2018-Jun-19 03:59N 45°10' E 036°33'0 0.0
2018-Jun-19 00:23N 45°10' E 036°34'0 0.0
2018-Jun-18 16:08N 45°10' E 036°34'0 0.0
2018-Jun-18 15:44N 45°10' E 036°34'0 0.1
2018-Jun-18 15:29N 45°10' E 036°34'0 0.0
2018-Jun-18 14:56N 45°10' E 036°34'0 0.1
2018-Jun-18 14:29N 45°10' E 036°34'0 0.1
2018-Jun-18 13:59N 45°10' E 036°34'0 0.0
2018-Jun-18 13:29N 45°10' E 036°34'0 0.0
2018-Jun-18 12:59N 45°10' E 036°34'0 0.0
2018-Jun-18 12:29N 45°10' E 036°34'0 0.0
2018-Jun-18 11:59N 45°10' E 036°34'0 0.0
2018-Jun-18 11:23N 45°10' E 036°34'0 0.0
2018-Jun-18 10:59N 45°10' E 036°34'0 0.0
2018-Jun-18 10:29N 45°10' E 036°34'0 0.0
2018-Jun-18 09:59N 45°10' E 036°34'0 0.0
2018-Jun-18 09:29N 45°10' E 036°33'0 0.0
2018-Jun-18 08:59N 45°10' E 036°33'0 0.0
2018-Jun-18 08:29N 45°10' E 036°33'0 0.0
2018-Jun-18 07:56N 45°10' E 036°33'0 0.0
2018-Jun-18 07:26N 45°10' E 036°33'0 0.0
2018-Jun-18 02:59N 45°10' E 036°33'0 0.0
2018-Jun-18 02:26N 45°10' E 036°33'0 0.0
2018-Jun-18 01:59N 45°10' E 036°33'0 0.0
2018-Jun-18 01:11N 45°10' E 036°33'0 0.0
2018-Jun-17 23:17N 45°10' E 036°33'0 0.0
2018-Jun-17 20:07N 45°10' E 036°34'1 2.7
2018-Jun-17 19:50N 45°10' E 036°32'2 4.0
2018-Jun-17 19:24N 45°09' E 036°31'32811.7
2018-Jun-16 15:23N 41°47' E 030°35'512.7
2018-Jun-16 15:01N 41°45' E 030°29'612.6
2018-Jun-16 14:30N 41°42' E 030°22'612.8
2018-Jun-16 14:00N 41°39' E 030°14'612.9
2018-Jun-16 13:30N 41°36' E 030°06'612.8
2018-Jun-16 13:00N 41°33' E 029°59'613.0
2018-Jun-16 12:31N 41°30' E 029°51'713.1
2018-Jun-16 12:00N 41°27' E 029°43'612.9
2018-Jun-16 11:30N 41°25' E 029°36'612.7
2018-Jun-16 11:00N 41°22' E 029°28'812.7
2018-Jun-16 10:23N 41°18' E 029°19'912.6
2018-Jun-16 09:39N 41°13' E 029°08'169 7.6
2018-Jun-15 11:31N 39°52' E 025°54'0 8.8
2018-Jun-15 11:29N 39°51' E 025°54'4 7.8
2018-Jun-15 10:55N 39°47' E 025°56'2 0.3
2018-Jun-15 03:31N 39°46' E 025°59'7 1.4
2018-Jun-14 22:34N 39°41' E 025°52'11112.2
2018-Jun-14 13:29N 37°51' E 025°40'2113.5
2018-Jun-14 11:56N 37°32' E 025°49'613.6
2018-Jun-14 11:30N 37°27' E 025°53'  

Dump ship's entire track history